首页
METAR-TAF:

METAR-TAF

机场 :

臺灣桃園國際機場

臺北, 台湾

纬度: 25-05N, 经度: 121-13E, 海拔: 33米

当前天气观测

该预报发布于21分钟前的20:30 UTC
风速4节,风向
温度 26°C
湿度 94%
气压 1003 hPa
能见度10公里或以上
少量云层高于1500英尺

METAR: RCTP 192030Z 17004KT 9999 FEW015 26/25 Q1003 NOSIG RMK A2963

时间: 04:51 (20:51 UTC)

预报

该预报发布于3小时和51分钟前的17:00 UTC
预报有效从19日的 18点(UTC)到 20日的 24点(UTC)
风速6节,风向西南
能见度10公里或以上
少量云层高于1200英尺
多云层高于3200英尺
多云层高于6000英尺
短暂存在
从 19日的 18点(UTC)到 19日的 24点(UTC)
风速5节,风向南转南东
少量云层高于1000英尺
多云层高于1500英尺
多云层高于5000英尺
成为
从 20日的 00点(UTC)到 20日的 02点(UTC)
风速5节,风向北转西北
短暂存在
从 20日的 06点(UTC)到 20日的 09点(UTC)
风速5节,风向西南
能見度: 3500
散云层高于600英尺
多云层高于1000英尺
少量云层高于1500英尺, 积雨云.
多云层高于4000英尺
雷暴, 雨
成为
从 20日的 09点(UTC)到 20日的 11点(UTC)
风速5节,风向南转西南
短暂存在
从 20日的 20点(UTC)到 20日的 24点(UTC)
风速5节,风向东南

TAF: RCTP 191700Z 1918/2024 22006KT 9999 FEW012 BKN032 BKN060 TEMPO 1918/1924 16005KT FEW010 BKN015 BKN050 BECMG 2000/2002 34005KT TEMPO 2006/2009 23005KT 3500 TSRA SCT006 BKN010 FEW015CB BKN040 BECMG 2009/2011 21005KT TEMPO 2020/2024 14005KT

超过4000个机场的气象观测和天气预报(METAR&TAF报告)。

可查询的气象台以黄色和红色小点在地图上表示。

将鼠标移到小点上方,可查看气象台名称。

然后点击查看天气观测和预报。

如需切换地图:点击带黑十字的绿色按钮放大地图;点击带横线的绿色按钮缩小地图;或者点击绿色箭头查看邻近地区的地图。


METAR-TAF: